sensor_id;sensor_type;location;lat;lon;timestamp;temperature;humidity
19359;DHT22;9815;52.334;20.890;2022-09-03T00:00:27;10.10;99.90
19359;DHT22;9815;52.334;20.890;2022-09-03T00:03:01;10.00;99.90
19359;DHT22;9815;52.334;20.890;2022-09-03T00:05:36;10.00;99.90
19359;DHT22;9815;52.334;20.890;2022-09-03T00:08:09;9.90;99.90
19359;DHT22;9815;52.334;20.890;2022-09-03T00:10:45;9.90;99.90
19359;DHT22;9815;52.334;20.890;2022-09-03T00:13:21;9.80;99.90
19359;DHT22;9815;52.334;20.890;2022-09-03T00:15:51;9.80;99.90
19359;DHT22;9815;52.334;20.890;2022-09-03T00:18:23;9.80;99.90
19359;DHT22;9815;52.334;20.890;2022-09-03T00:20:56;9.80;99.90
19359;DHT22;9815;52.334;20.890;2022-09-03T00:23:29;9.70;99.90
19359;DHT22;9815;52.334;20.890;2022-09-03T00:26:05;9.80;99.90
19359;DHT22;9815;52.334;20.890;2022-09-03T00:28:37;9.70;99.90
19359;DHT22;9815;52.334;20.890;2022-09-03T00:31:13;9.70;99.90
19359;DHT22;9815;52.334;20.890;2022-09-03T00:33:46;9.70;99.90
19359;DHT22;9815;52.334;20.890;2022-09-03T00:36:18;9.60;99.90
19359;DHT22;9815;52.334;20.890;2022-09-03T00:38:47;9.60;99.90
19359;DHT22;9815;52.334;20.890;2022-09-03T00:41:24;9.60;99.90
19359;DHT22;9815;52.334;20.890;2022-09-03T00:46:59;9.50;99.90
19359;DHT22;9815;52.334;20.890;2022-09-03T00:49:36;9.50;99.90
19359;DHT22;9815;52.334;20.890;2022-09-03T00:52:13;9.50;99.90
19359;DHT22;9815;52.334;20.890;2022-09-03T00:54:55;9.40;99.90
19359;DHT22;9815;52.334;20.890;2022-09-03T00:57:38;9.40;99.90
19359;DHT22;9815;52.334;20.890;2022-09-03T01:00:14;9.40;99.90
19359;DHT22;9815;52.334;20.890;2022-09-03T01:02:57;9.40;99.90
19359;DHT22;9815;52.334;20.890;2022-09-03T01:08:42;9.40;99.90
19359;DHT22;9815;52.334;20.890;2022-09-03T01:11:23;9.40;99.90
19359;DHT22;9815;52.334;20.890;2022-09-03T01:14:02;9.40;99.90
19359;DHT22;9815;52.334;20.890;2022-09-03T01:16:39;9.40;99.90
19359;DHT22;9815;52.334;20.890;2022-09-03T01:19:31;9.30;99.90
19359;DHT22;9815;52.334;20.890;2022-09-03T01:22:18;9.30;99.90
19359;DHT22;9815;52.334;20.890;2022-09-03T01:25:02;9.30;99.90
19359;DHT22;9815;52.334;20.890;2022-09-03T01:27:41;9.30;99.90
19359;DHT22;9815;52.334;20.890;2022-09-03T01:30:16;9.20;99.90
19359;DHT22;9815;52.334;20.890;2022-09-03T01:32:51;9.20;99.90
19359;DHT22;9815;52.334;20.890;2022-09-03T01:35:26;9.20;99.90
19359;DHT22;9815;52.334;20.890;2022-09-03T01:38:08;9.10;99.90
19359;DHT22;9815;52.334;20.890;2022-09-03T01:40:45;9.10;99.90
19359;DHT22;9815;52.334;20.890;2022-09-03T01:43:33;9.00;99.90
19359;DHT22;9815;52.334;20.890;2022-09-03T01:46:13;9.00;99.90
19359;DHT22;9815;52.334;20.890;2022-09-03T01:48:51;9.00;99.90
19359;DHT22;9815;52.334;20.890;2022-09-03T01:51:28;9.00;99.90
19359;DHT22;9815;52.334;20.890;2022-09-03T01:54:24;9.00;99.90
19359;DHT22;9815;52.334;20.890;2022-09-03T01:57:14;9.00;99.90
19359;DHT22;9815;52.334;20.890;2022-09-03T02:00:04;9.00;99.90
19359;DHT22;9815;52.334;20.890;2022-09-03T02:02:41;8.90;99.90
19359;DHT22;9815;52.334;20.890;2022-09-03T02:05:13;8.90;99.90
19359;DHT22;9815;52.334;20.890;2022-09-03T02:07:44;8.90;99.90
19359;DHT22;9815;52.334;20.890;2022-09-03T02:10:15;8.90;99.90
19359;DHT22;9815;52.334;20.890;2022-09-03T02:12:48;8.80;99.90
19359;DHT22;9815;52.334;20.890;2022-09-03T02:15:20;8.80;99.90
19359;DHT22;9815;52.334;20.890;2022-09-03T02:17:53;8.80;99.90
19359;DHT22;9815;52.334;20.890;2022-09-03T02:20:25;8.80;99.90
19359;DHT22;9815;52.334;20.890;2022-09-03T02:22:55;8.70;99.90
19359;DHT22;9815;52.334;20.890;2022-09-03T02:25:29;8.70;99.90
19359;DHT22;9815;52.334;20.890;2022-09-03T02:27:59;8.70;99.90
19359;DHT22;9815;52.334;20.890;2022-09-03T02:30:28;8.60;99.90
19359;DHT22;9815;52.334;20.890;2022-09-03T02:32:58;8.60;99.90
19359;DHT22;9815;52.334;20.890;2022-09-03T02:35:27;8.60;99.90
19359;DHT22;9815;52.334;20.890;2022-09-03T02:37:55;8.50;99.90
19359;DHT22;9815;52.334;20.890;2022-09-03T02:40:24;8.50;99.90
19359;DHT22;9815;52.334;20.890;2022-09-03T02:42:52;8.50;99.90
19359;DHT22;9815;52.334;20.890;2022-09-03T02:45:25;8.50;99.90
19359;DHT22;9815;52.334;20.890;2022-09-03T02:47:55;8.50;99.90
19359;DHT22;9815;52.334;20.890;2022-09-03T02:50:25;8.50;99.90
19359;DHT22;9815;52.334;20.890;2022-09-03T02:52:54;8.50;99.90
19359;DHT22;9815;52.334;20.890;2022-09-03T02:55:22;8.40;99.90
19359;DHT22;9815;52.334;20.890;2022-09-03T02:57:50;8.40;99.90
19359;DHT22;9815;52.334;20.890;2022-09-03T03:00:18;8.40;99.90
19359;DHT22;9815;52.334;20.890;2022-09-03T03:02:47;8.40;99.90
19359;DHT22;9815;52.334;20.890;2022-09-03T03:05:25;8.40;99.90
19359;DHT22;9815;52.334;20.890;2022-09-03T03:07:56;8.30;99.90
19359;DHT22;9815;52.334;20.890;2022-09-03T03:10:24;8.30;99.90
19359;DHT22;9815;52.334;20.890;2022-09-03T03:12:53;8.30;99.90
19359;DHT22;9815;52.334;20.890;2022-09-03T03:15:21;8.20;99.90
19359;DHT22;9815;52.334;20.890;2022-09-03T03:17:49;8.30;99.90
19359;DHT22;9815;52.334;20.890;2022-09-03T03:20:18;8.20;99.90
19359;DHT22;9815;52.334;20.890;2022-09-03T03:22:46;8.30;99.90
19359;DHT22;9815;52.334;20.890;2022-09-03T03:25:16;8.30;99.90
19359;DHT22;9815;52.334;20.890;2022-09-03T03:27:44;8.20;99.90
19359;DHT22;9815;52.334;20.890;2022-09-03T03:30:12;8.20;99.90
19359;DHT22;9815;52.334;20.890;2022-09-03T03:32:41;8.20;99.90
19359;DHT22;9815;52.334;20.890;2022-09-03T03:35:09;8.20;99.90
19359;DHT22;9815;52.334;20.890;2022-09-03T03:37:37;8.20;99.90
19359;DHT22;9815;52.334;20.890;2022-09-03T03:40:06;8.20;99.90
19359;DHT22;9815;52.334;20.890;2022-09-03T03:42:36;8.20;99.90
19359;DHT22;9815;52.334;20.890;2022-09-03T03:45:05;8.10;99.90
19359;DHT22;9815;52.334;20.890;2022-09-03T03:47:33;8.10;99.90
19359;DHT22;9815;52.334;20.890;2022-09-03T03:50:03;8.10;99.90
19359;DHT22;9815;52.334;20.890;2022-09-03T03:52:31;8.00;99.90
19359;DHT22;9815;52.334;20.890;2022-09-03T03:54:59;8.10;99.90
19359;DHT22;9815;52.334;20.890;2022-09-03T03:57:29;8.00;99.90
19359;DHT22;9815;52.334;20.890;2022-09-03T03:59:59;8.00;99.90
19359;DHT22;9815;52.334;20.890;2022-09-03T04:02:40;7.90;99.90
19359;DHT22;9815;52.334;20.890;2022-09-03T04:05:08;7.90;99.90
19359;DHT22;9815;52.334;20.890;2022-09-03T04:07:37;7.90;99.90
19359;DHT22;9815;52.334;20.890;2022-09-03T04:10:07;7.90;99.90
19359;DHT22;9815;52.334;20.890;2022-09-03T04:12:35;7.80;99.90
19359;DHT22;9815;52.334;20.890;2022-09-03T04:15:05;7.80;99.90
19359;DHT22;9815;52.334;20.890;2022-09-03T04:17:34;7.80;99.90
19359;DHT22;9815;52.334;20.890;2022-09-03T04:20:02;7.70;99.90
19359;DHT22;9815;52.334;20.890;2022-09-03T04:22:30;7.70;99.90
19359;DHT22;9815;52.334;20.890;2022-09-03T04:24:59;7.70;99.90
19359;DHT22;9815;52.334;20.890;2022-09-03T04:27:27;7.80;99.90
19359;DHT22;9815;52.334;20.890;2022-09-03T04:29:56;7.90;99.90
19359;DHT22;9815;52.334;20.890;2022-09-03T04:32:26;7.90;99.90
19359;DHT22;9815;52.334;20.890;2022-09-03T04:35:12;7.90;99.90
19359;DHT22;9815;52.334;20.890;2022-09-03T04:37:40;8.00;99.90
19359;DHT22;9815;52.334;20.890;2022-09-03T04:40:09;8.10;99.90
19359;DHT22;9815;52.334;20.890;2022-09-03T04:42:37;8.10;99.90
19359;DHT22;9815;52.334;20.890;2022-09-03T04:45:06;8.20;99.90
19359;DHT22;9815;52.334;20.890;2022-09-03T04:47:36;8.20;99.90
19359;DHT22;9815;52.334;20.890;2022-09-03T04:50:05;8.30;99.90
19359;DHT22;9815;52.334;20.890;2022-09-03T04:52:34;8.30;99.90
19359;DHT22;9815;52.334;20.890;2022-09-03T04:55:02;8.30;99.90
19359;DHT22;9815;52.334;20.890;2022-09-03T04:57:33;8.40;99.90
19359;DHT22;9815;52.334;20.890;2022-09-03T05:00:04;8.30;99.90
19359;DHT22;9815;52.334;20.890;2022-09-03T05:02:38;8.50;99.90
19359;DHT22;9815;52.334;20.890;2022-09-03T05:05:06;8.60;99.90
19359;DHT22;9815;52.334;20.890;2022-09-03T05:07:35;8.60;99.90
19359;DHT22;9815;52.334;20.890;2022-09-03T05:10:07;8.60;99.90
19359;DHT22;9815;52.334;20.890;2022-09-03T05:12:35;8.70;99.90
19359;DHT22;9815;52.334;20.890;2022-09-03T05:15:05;8.70;99.90
19359;DHT22;9815;52.334;20.890;2022-09-03T05:17:33;8.80;99.90
19359;DHT22;9815;52.334;20.890;2022-09-03T05:20:06;8.90;99.90
19359;DHT22;9815;52.334;20.890;2022-09-03T05:22:35;9.00;99.90
19359;DHT22;9815;52.334;20.890;2022-09-03T05:25:05;9.10;99.90
19359;DHT22;9815;52.334;20.890;2022-09-03T05:27:33;9.30;99.90
19359;DHT22;9815;52.334;20.890;2022-09-03T05:30:01;9.30;99.90
19359;DHT22;9815;52.334;20.890;2022-09-03T05:32:30;9.40;99.90
19359;DHT22;9815;52.334;20.890;2022-09-03T05:34:58;9.50;99.90
19359;DHT22;9815;52.334;20.890;2022-09-03T05:37:28;9.50;99.90
19359;DHT22;9815;52.334;20.890;2022-09-03T05:39:56;9.60;99.90
19359;DHT22;9815;52.334;20.890;2022-09-03T05:42:24;9.60;99.90
19359;DHT22;9815;52.334;20.890;2022-09-03T05:44:55;9.70;99.90
19359;DHT22;9815;52.334;20.890;2022-09-03T05:47:23;9.90;99.90
19359;DHT22;9815;52.334;20.890;2022-09-03T05:49:51;10.00;99.90
19359;DHT22;9815;52.334;20.890;2022-09-03T05:52:19;10.10;99.90
19359;DHT22;9815;52.334;20.890;2022-09-03T05:54:50;10.10;99.90
19359;DHT22;9815;52.334;20.890;2022-09-03T05:57:18;10.20;99.90
19359;DHT22;9815;52.334;20.890;2022-09-03T05:59:47;10.30;99.90
19359;DHT22;9815;52.334;20.890;2022-09-03T06:02:15;10.40;99.90
19359;DHT22;9815;52.334;20.890;2022-09-03T06:04:45;10.50;99.90
19359;DHT22;9815;52.334;20.890;2022-09-03T06:07:14;10.50;99.90
19359;DHT22;9815;52.334;20.890;2022-09-03T06:09:42;10.70;99.90
19359;DHT22;9815;52.334;20.890;2022-09-03T06:12:12;10.80;99.90
19359;DHT22;9815;52.334;20.890;2022-09-03T06:14:40;10.90;99.90
19359;DHT22;9815;52.334;20.890;2022-09-03T06:17:08;10.90;99.90
19359;DHT22;9815;52.334;20.890;2022-09-03T06:19:38;10.90;99.90
19359;DHT22;9815;52.334;20.890;2022-09-03T06:22:06;11.00;98.00
19359;DHT22;9815;52.334;20.890;2022-09-03T06:24:35;11.10;97.90
19359;DHT22;9815;52.334;20.890;2022-09-03T06:27:03;11.30;96.90
19359;DHT22;9815;52.334;20.890;2022-09-03T06:29:33;11.50;96.90
19359;DHT22;9815;52.334;20.890;2022-09-03T06:32:02;11.50;96.20
19359;DHT22;9815;52.334;20.890;2022-09-03T06:34:30;11.50;97.30
19359;DHT22;9815;52.334;20.890;2022-09-03T06:36:59;11.60;96.80
19359;DHT22;9815;52.334;20.890;2022-09-03T06:39:27;11.60;97.50
19359;DHT22;9815;52.334;20.890;2022-09-03T06:41:56;11.70;95.70
19359;DHT22;9815;52.334;20.890;2022-09-03T06:44:34;11.80;96.60
19359;DHT22;9815;52.334;20.890;2022-09-03T06:47:02;11.90;95.00
19359;DHT22;9815;52.334;20.890;2022-09-03T06:49:30;12.10;93.60
19359;DHT22;9815;52.334;20.890;2022-09-03T06:51:59;12.20;94.30
19359;DHT22;9815;52.334;20.890;2022-09-03T06:54:27;12.30;95.80
19359;DHT22;9815;52.334;20.890;2022-09-03T06:56:55;12.30;93.50
19359;DHT22;9815;52.334;20.890;2022-09-03T06:59:25;12.40;93.10
19359;DHT22;9815;52.334;20.890;2022-09-03T07:01:55;12.50;92.00
19359;DHT22;9815;52.334;20.890;2022-09-03T07:04:25;12.70;92.20
19359;DHT22;9815;52.334;20.890;2022-09-03T07:06:54;12.80;91.00
19359;DHT22;9815;52.334;20.890;2022-09-03T07:09:23;12.80;89.50
19359;DHT22;9815;52.334;20.890;2022-09-03T07:11:51;13.10;87.70
19359;DHT22;9815;52.334;20.890;2022-09-03T07:14:20;13.20;88.70
19359;DHT22;9815;52.334;20.890;2022-09-03T07:16:49;13.40;84.20
19359;DHT22;9815;52.334;20.890;2022-09-03T07:19:19;13.50;86.00
19359;DHT22;9815;52.334;20.890;2022-09-03T07:21:47;13.50;87.60
19359;DHT22;9815;52.334;20.890;2022-09-03T07:24:17;13.70;84.10
19359;DHT22;9815;52.334;20.890;2022-09-03T07:26:48;13.70;86.10
19359;DHT22;9815;52.334;20.890;2022-09-03T07:29:16;13.80;81.20
19359;DHT22;9815;52.334;20.890;2022-09-03T07:31:48;14.00;82.50
19359;DHT22;9815;52.334;20.890;2022-09-03T07:34:21;14.00;80.20
19359;DHT22;9815;52.334;20.890;2022-09-03T07:36:53;14.10;78.60
19359;DHT22;9815;52.334;20.890;2022-09-03T07:39:22;14.20;76.40
19359;DHT22;9815;52.334;20.890;2022-09-03T07:41:51;14.40;72.70
19359;DHT22;9815;52.334;20.890;2022-09-03T07:44:19;14.60;71.50
19359;DHT22;9815;52.334;20.890;2022-09-03T07:46:50;14.70;74.20
19359;DHT22;9815;52.334;20.890;2022-09-03T07:49:20;14.90;71.80
19359;DHT22;9815;52.334;20.890;2022-09-03T07:51:49;15.00;73.10
19359;DHT22;9815;52.334;20.890;2022-09-03T07:54:20;15.10;69.90
19359;DHT22;9815;52.334;20.890;2022-09-03T07:56:50;15.30;69.70
19359;DHT22;9815;52.334;20.890;2022-09-03T07:59:18;15.50;68.10
19359;DHT22;9815;52.334;20.890;2022-09-03T08:01:49;15.70;66.50
19359;DHT22;9815;52.334;20.890;2022-09-03T08:04:19;15.80;71.20
19359;DHT22;9815;52.334;20.890;2022-09-03T08:06:48;15.90;64.50
19359;DHT22;9815;52.334;20.890;2022-09-03T08:09:31;16.10;59.60
19359;DHT22;9815;52.334;20.890;2022-09-03T08:12:00;16.30;60.60
19359;DHT22;9815;52.334;20.890;2022-09-03T08:14:28;16.50;60.70
19359;DHT22;9815;52.334;20.890;2022-09-03T08:16:57;16.60;60.60
19359;DHT22;9815;52.334;20.890;2022-09-03T08:19:28;16.70;60.40
19359;DHT22;9815;52.334;20.890;2022-09-03T08:21:56;16.90;58.00
19359;DHT22;9815;52.334;20.890;2022-09-03T08:24:24;17.10;54.80
19359;DHT22;9815;52.334;20.890;2022-09-03T08:26:53;17.20;55.80
19359;DHT22;9815;52.334;20.890;2022-09-03T08:29:21;17.30;53.40
19359;DHT22;9815;52.334;20.890;2022-09-03T08:31:59;17.50;53.40
19359;DHT22;9815;52.334;20.890;2022-09-03T08:34:32;17.70;52.20
19359;DHT22;9815;52.334;20.890;2022-09-03T08:37:01;17.90;52.40
19359;DHT22;9815;52.334;20.890;2022-09-03T08:39:30;18.20;49.40
19359;DHT22;9815;52.334;20.890;2022-09-03T08:42:20;18.30;50.40
19359;DHT22;9815;52.334;20.890;2022-09-03T08:44:51;18.50;49.20
19359;DHT22;9815;52.334;20.890;2022-09-03T08:47:25;18.60;49.30
19359;DHT22;9815;52.334;20.890;2022-09-03T08:49:57;18.60;48.00
19359;DHT22;9815;52.334;20.890;2022-09-03T08:52:32;18.80;49.10
19359;DHT22;9815;52.334;20.890;2022-09-03T08:55:19;18.90;50.50
19359;DHT22;9815;52.334;20.890;2022-09-03T08:57:50;19.10;49.10
19359;DHT22;9815;52.334;20.890;2022-09-03T09:00:20;19.20;46.00
19359;DHT22;9815;52.334;20.890;2022-09-03T09:02:57;19.20;45.00
19359;DHT22;9815;52.334;20.890;2022-09-03T09:05:40;19.40;47.40
19359;DHT22;9815;52.334;20.890;2022-09-03T09:08:17;19.60;45.00
19359;DHT22;9815;52.334;20.890;2022-09-03T09:10:51;19.60;44.00
19359;DHT22;9815;52.334;20.890;2022-09-03T09:13:28;19.80;43.60
19359;DHT22;9815;52.334;20.890;2022-09-03T09:16:06;19.80;44.20
19359;DHT22;9815;52.334;20.890;2022-09-03T09:18:47;20.10;43.70
19359;DHT22;9815;52.334;20.890;2022-09-03T09:21:23;20.20;42.50
19359;DHT22;9815;52.334;20.890;2022-09-03T09:23:57;20.40;41.90
19359;DHT22;9815;52.334;20.890;2022-09-03T09:26:27;20.80;42.90
19359;DHT22;9815;52.334;20.890;2022-09-03T09:28:59;20.90;41.80
19359;DHT22;9815;52.334;20.890;2022-09-03T09:31:30;21.20;43.20
19359;DHT22;9815;52.334;20.890;2022-09-03T09:34:02;21.40;40.20
19359;DHT22;9815;52.334;20.890;2022-09-03T09:36:36;21.50;40.50
19359;DHT22;9815;52.334;20.890;2022-09-03T09:39:10;21.70;39.10
19359;DHT22;9815;52.334;20.890;2022-09-03T09:41:41;21.70;39.40
19359;DHT22;9815;52.334;20.890;2022-09-03T09:44:18;22.30;38.90
19359;DHT22;9815;52.334;20.890;2022-09-03T09:46:47;22.40;38.60
19359;DHT22;9815;52.334;20.890;2022-09-03T09:49:31;22.70;38.50
19359;DHT22;9815;52.334;20.890;2022-09-03T09:52:05;23.10;36.70
19359;DHT22;9815;52.334;20.890;2022-09-03T09:54:34;23.50;34.80
19359;DHT22;9815;52.334;20.890;2022-09-03T09:57:04;23.80;36.20
19359;DHT22;9815;52.334;20.890;2022-09-03T09:59:33;24.00;35.00
19359;DHT22;9815;52.334;20.890;2022-09-03T10:02:10;23.60;34.30
19359;DHT22;9815;52.334;20.890;2022-09-03T10:04:49;23.40;34.60
19359;DHT22;9815;52.334;20.890;2022-09-03T10:07:23;23.90;34.50
19359;DHT22;9815;52.334;20.890;2022-09-03T10:10:03;24.00;33.50
19359;DHT22;9815;52.334;20.890;2022-09-03T10:12:35;23.90;34.30
19359;DHT22;9815;52.334;20.890;2022-09-03T10:15:21;24.00;34.30
19359;DHT22;9815;52.334;20.890;2022-09-03T10:18:02;23.70;34.80
19359;DHT22;9815;52.334;20.890;2022-09-03T10:20:39;23.50;35.00
19359;DHT22;9815;52.334;20.890;2022-09-03T10:23:17;23.70;33.20
19359;DHT22;9815;52.334;20.890;2022-09-03T10:25:58;23.20;34.00
19359;DHT22;9815;52.334;20.890;2022-09-03T10:28:30;23.30;35.20
19359;DHT22;9815;52.334;20.890;2022-09-03T10:31:28;24.10;34.30
19359;DHT22;9815;52.334;20.890;2022-09-03T10:34:02;24.10;35.20
19359;DHT22;9815;52.334;20.890;2022-09-03T10:36:35;24.40;33.20
19359;DHT22;9815;52.334;20.890;2022-09-03T10:39:13;24.60;33.80
19359;DHT22;9815;52.334;20.890;2022-09-03T10:41:56;24.70;32.00
19359;DHT22;9815;52.334;20.890;2022-09-03T10:44:37;24.60;32.30
19359;DHT22;9815;52.334;20.890;2022-09-03T10:47:20;24.60;33.90
19359;DHT22;9815;52.334;20.890;2022-09-03T10:49:59;24.30;33.00
19359;DHT22;9815;52.334;20.890;2022-09-03T10:52:36;24.60;34.70
19359;DHT22;9815;52.334;20.890;2022-09-03T10:55:16;25.20;32.80
19359;DHT22;9815;52.334;20.890;2022-09-03T10:57:52;25.70;31.50
19359;DHT22;9815;52.334;20.890;2022-09-03T11:00:23;25.80;31.40
19359;DHT22;9815;52.334;20.890;2022-09-03T11:03:31;25.90;29.60
19359;DHT22;9815;52.334;20.890;2022-09-03T11:06:09;26.40;30.90
19359;DHT22;9815;52.334;20.890;2022-09-03T11:08:42;26.00;30.80
19359;DHT22;9815;52.334;20.890;2022-09-03T11:11:17;25.90;31.50
19359;DHT22;9815;52.334;20.890;2022-09-03T11:13:49;25.40;32.10
19359;DHT22;9815;52.334;20.890;2022-09-03T11:16:22;25.40;31.70
19359;DHT22;9815;52.334;20.890;2022-09-03T11:18:55;25.20;30.50
19359;DHT22;9815;52.334;20.890;2022-09-03T11:21:26;25.00;32.50
19359;DHT22;9815;52.334;20.890;2022-09-03T11:24:03;25.70;31.50
19359;DHT22;9815;52.334;20.890;2022-09-03T11:26:34;26.10;31.00
19359;DHT22;9815;52.334;20.890;2022-09-03T11:29:07;25.80;29.40
19359;DHT22;9815;52.334;20.890;2022-09-03T11:31:45;26.20;29.50
19359;DHT22;9815;52.334;20.890;2022-09-03T11:34:27;25.90;29.40
19359;DHT22;9815;52.334;20.890;2022-09-03T11:37:17;25.10;30.80
19359;DHT22;9815;52.334;20.890;2022-09-03T11:39:56;25.30;32.30
19359;DHT22;9815;52.334;20.890;2022-09-03T11:42:30;25.00;31.10
19359;DHT22;9815;52.334;20.890;2022-09-03T11:45:12;24.90;30.80
19359;DHT22;9815;52.334;20.890;2022-09-03T11:47:42;25.10;30.10
19359;DHT22;9815;52.334;20.890;2022-09-03T11:50:18;24.80;30.90
19359;DHT22;9815;52.334;20.890;2022-09-03T11:52:47;24.70;31.80
19359;DHT22;9815;52.334;20.890;2022-09-03T11:55:28;24.60;31.60
19359;DHT22;9815;52.334;20.890;2022-09-03T11:58:12;25.10;32.10
19359;DHT22;9815;52.334;20.890;2022-09-03T12:00:47;25.40;31.20
19359;DHT22;9815;52.334;20.890;2022-09-03T12:03:16;25.50;30.60
19359;DHT22;9815;52.334;20.890;2022-09-03T12:05:50;25.70;30.30
19359;DHT22;9815;52.334;20.890;2022-09-03T12:08:40;25.90;30.00
19359;DHT22;9815;52.334;20.890;2022-09-03T12:11:24;25.00;29.50
19359;DHT22;9815;52.334;20.890;2022-09-03T12:14:03;24.70;29.60
19359;DHT22;9815;52.334;20.890;2022-09-03T12:16:51;24.90;30.00
19359;DHT22;9815;52.334;20.890;2022-09-03T12:19:27;25.60;30.20
19359;DHT22;9815;52.334;20.890;2022-09-03T12:21:59;26.10;28.40
19359;DHT22;9815;52.334;20.890;2022-09-03T12:24:31;25.70;29.10
19359;DHT22;9815;52.334;20.890;2022-09-03T12:27:04;25.60;28.70
19359;DHT22;9815;52.334;20.890;2022-09-03T12:29:35;25.50;28.90
19359;DHT22;9815;52.334;20.890;2022-09-03T12:32:10;25.50;30.20
19359;DHT22;9815;52.334;20.890;2022-09-03T12:34:39;25.60;29.60
19359;DHT22;9815;52.334;20.890;2022-09-03T12:37:18;25.40;30.30
19359;DHT22;9815;52.334;20.890;2022-09-03T12:40:16;25.40;29.80
19359;DHT22;9815;52.334;20.890;2022-09-03T12:42:45;25.80;28.60
19359;DHT22;9815;52.334;20.890;2022-09-03T12:45:18;25.80;28.90
19359;DHT22;9815;52.334;20.890;2022-09-03T12:47:47;25.60;30.10
19359;DHT22;9815;52.334;20.890;2022-09-03T12:50:17;25.60;29.90
19359;DHT22;9815;52.334;20.890;2022-09-03T12:52:48;25.60;29.80
19359;DHT22;9815;52.334;20.890;2022-09-03T12:55:28;25.40;31.10
19359;DHT22;9815;52.334;20.890;2022-09-03T12:58:04;25.30;30.40
19359;DHT22;9815;52.334;20.890;2022-09-03T13:00:43;25.60;29.50
19359;DHT22;9815;52.334;20.890;2022-09-03T13:03:17;25.60;28.20
19359;DHT22;9815;52.334;20.890;2022-09-03T13:05:50;26.00;29.30
19359;DHT22;9815;52.334;20.890;2022-09-03T13:08:22;25.90;28.00
19359;DHT22;9815;52.334;20.890;2022-09-03T13:10:52;26.20;29.10
19359;DHT22;9815;52.334;20.890;2022-09-03T13:13:23;26.30;28.60
19359;DHT22;9815;52.334;20.890;2022-09-03T13:16:13;26.20;28.00
19359;DHT22;9815;52.334;20.890;2022-09-03T13:18:48;26.00;28.00
19359;DHT22;9815;52.334;20.890;2022-09-03T13:21:38;26.00;28.90
19359;DHT22;9815;52.334;20.890;2022-09-03T13:27:05;25.90;28.80
19359;DHT22;9815;52.334;20.890;2022-09-03T13:29:46;25.60;28.40
19359;DHT22;9815;52.334;20.890;2022-09-03T13:32:28;25.40;28.50
19359;DHT22;9815;52.334;20.890;2022-09-03T13:35:05;25.20;29.50
19359;DHT22;9815;52.334;20.890;2022-09-03T13:37:38;25.60;28.30
19359;DHT22;9815;52.334;20.890;2022-09-03T13:40:15;25.50;29.10
19359;DHT22;9815;52.334;20.890;2022-09-03T13:42:49;25.60;28.90
19359;DHT22;9815;52.334;20.890;2022-09-03T13:45:28;25.40;29.70
19359;DHT22;9815;52.334;20.890;2022-09-03T13:48:09;25.20;29.20
19359;DHT22;9815;52.334;20.890;2022-09-03T13:51:02;25.00;29.20
19359;DHT22;9815;52.334;20.890;2022-09-03T13:53:39;25.00;29.80
19359;DHT22;9815;52.334;20.890;2022-09-03T13:56:19;25.00;28.40
19359;DHT22;9815;52.334;20.890;2022-09-03T13:58:55;24.50;29.70
19359;DHT22;9815;52.334;20.890;2022-09-03T14:01:26;24.30;30.40
19359;DHT22;9815;52.334;20.890;2022-09-03T14:04:11;24.50;29.80
19359;DHT22;9815;52.334;20.890;2022-09-03T14:06:42;24.60;29.50
19359;DHT22;9815;52.334;20.890;2022-09-03T14:09:18;24.40;29.40
19359;DHT22;9815;52.334;20.890;2022-09-03T14:11:53;24.40;29.20
19359;DHT22;9815;52.334;20.890;2022-09-03T14:14:36;24.40;29.70
19359;DHT22;9815;52.334;20.890;2022-09-03T14:17:11;24.10;30.40
19359;DHT22;9815;52.334;20.890;2022-09-03T14:19:47;24.20;30.30
19359;DHT22;9815;52.334;20.890;2022-09-03T14:22:20;24.10;30.00
19359;DHT22;9815;52.334;20.890;2022-09-03T14:24:53;23.80;29.70
19359;DHT22;9815;52.334;20.890;2022-09-03T14:27:24;23.50;32.60
19359;DHT22;9815;52.334;20.890;2022-09-03T14:29:57;23.10;33.00
19359;DHT22;9815;52.334;20.890;2022-09-03T14:32:28;22.80;33.20
19359;DHT22;9815;52.334;20.890;2022-09-03T14:38:13;22.50;33.90
19359;DHT22;9815;52.334;20.890;2022-09-03T14:40:57;22.50;31.80
19359;DHT22;9815;52.334;20.890;2022-09-03T14:46:32;22.30;32.90
19359;DHT22;9815;52.334;20.890;2022-09-03T14:49:25;22.20;34.00
19359;DHT22;9815;52.334;20.890;2022-09-03T14:52:20;22.10;33.90
19359;DHT22;9815;52.334;20.890;2022-09-03T14:55:12;22.10;34.50
19359;DHT22;9815;52.334;20.890;2022-09-03T14:57:55;22.10;34.70
19359;DHT22;9815;52.334;20.890;2022-09-03T15:00:33;22.10;34.60
19359;DHT22;9815;52.334;20.890;2022-09-03T15:03:21;22.20;35.30
19359;DHT22;9815;52.334;20.890;2022-09-03T15:06:19;22.00;35.10
19359;DHT22;9815;52.334;20.890;2022-09-03T15:09:14;22.00;35.00
19359;DHT22;9815;52.334;20.890;2022-09-03T15:11:50;21.90;35.50
19359;DHT22;9815;52.334;20.890;2022-09-03T15:14:25;21.80;35.50
19359;DHT22;9815;52.334;20.890;2022-09-03T15:16:58;21.80;35.30
19359;DHT22;9815;52.334;20.890;2022-09-03T15:19:52;21.80;35.50
19359;DHT22;9815;52.334;20.890;2022-09-03T15:22:44;21.70;35.60
19359;DHT22;9815;52.334;20.890;2022-09-03T15:25:24;21.60;35.10
19359;DHT22;9815;52.334;20.890;2022-09-03T15:28:09;21.50;35.50
19359;DHT22;9815;52.334;20.890;2022-09-03T15:30:43;21.50;36.10
19359;DHT22;9815;52.334;20.890;2022-09-03T15:33:19;21.40;37.00
19359;DHT22;9815;52.334;20.890;2022-09-03T15:36:07;21.40;37.00
19359;DHT22;9815;52.334;20.890;2022-09-03T15:38:43;21.20;35.80
19359;DHT22;9815;52.334;20.890;2022-09-03T15:41:28;21.20;37.00
19359;DHT22;9815;52.334;20.890;2022-09-03T15:43:59;21.10;36.30
19359;DHT22;9815;52.334;20.890;2022-09-03T15:46:47;21.10;35.80
19359;DHT22;9815;52.334;20.890;2022-09-03T15:49:22;21.10;36.90
19359;DHT22;9815;52.334;20.890;2022-09-03T15:52:01;21.00;37.70
19359;DHT22;9815;52.334;20.890;2022-09-03T15:54:40;20.80;36.70
19359;DHT22;9815;52.334;20.890;2022-09-03T15:57:15;20.80;37.20
19359;DHT22;9815;52.334;20.890;2022-09-03T15:59:50;20.80;38.20
19359;DHT22;9815;52.334;20.890;2022-09-03T16:02:29;20.60;38.60
19359;DHT22;9815;52.334;20.890;2022-09-03T16:05:07;20.60;37.30
19359;DHT22;9815;52.334;20.890;2022-09-03T16:07:57;20.50;38.60
19359;DHT22;9815;52.334;20.890;2022-09-03T16:10:40;20.40;38.60
19359;DHT22;9815;52.334;20.890;2022-09-03T16:13:29;20.40;39.30
19359;DHT22;9815;52.334;20.890;2022-09-03T16:16:01;20.30;39.60
19359;DHT22;9815;52.334;20.890;2022-09-03T16:18:33;20.20;40.00
19359;DHT22;9815;52.334;20.890;2022-09-03T16:21:08;20.00;40.00
19359;DHT22;9815;52.334;20.890;2022-09-03T16:23:42;20.00;40.90
19359;DHT22;9815;52.334;20.890;2022-09-03T16:26:20;19.90;40.90
19359;DHT22;9815;52.334;20.890;2022-09-03T16:28:58;19.80;41.20
19359;DHT22;9815;52.334;20.890;2022-09-03T16:31:50;19.70;41.10
19359;DHT22;9815;52.334;20.890;2022-09-03T16:34:31;19.60;41.50